createdAt,value
2022-09-12T00:01:21.219Z,72.00
2022-09-12T00:03:53.593Z,76.70
2022-09-12T00:06:23.561Z,75.00
2022-09-12T00:08:51.887Z,76.10
2022-09-12T00:11:19.971Z,75.80
2022-09-12T00:13:48.186Z,77.10
2022-09-12T00:16:18.048Z,75.10
2022-09-12T00:18:47.454Z,73.40
2022-09-12T00:21:18.475Z,72.00
2022-09-12T00:23:47.172Z,71.80
2022-09-12T00:26:17.465Z,70.80
2022-09-12T00:28:46.348Z,72.10
2022-09-12T00:31:17.441Z,71.90
2022-09-12T00:33:46.303Z,70.20
2022-09-12T00:36:18.317Z,70.20
2022-09-12T00:38:47.238Z,73.50
2022-09-12T00:41:19.153Z,75.20
2022-09-12T00:43:49.252Z,76.20
2022-09-12T00:46:28.306Z,77.70
2022-09-12T00:49:00.888Z,75.00
2022-09-12T00:51:32.813Z,74.80
2022-09-12T00:54:04.101Z,73.50
2022-09-12T00:56:33.395Z,73.10
2022-09-12T00:59:06.241Z,74.20
2022-09-12T01:01:35.345Z,73.30
2022-09-12T01:04:04.132Z,72.40
2022-09-12T01:06:37.279Z,71.60
2022-09-12T01:09:06.498Z,71.20
2022-09-12T01:11:38.456Z,70.70
2022-09-12T01:14:07.653Z,70.90
2022-09-12T01:16:37.913Z,74.10
2022-09-12T01:19:26.631Z,72.60
2022-09-12T01:22:13.647Z,71.80
2022-09-12T01:24:55.299Z,71.30
2022-09-12T01:27:38.083Z,70.90
2022-09-12T01:30:48.329Z,70.10
2022-09-12T01:33:37.726Z,69.90
2022-09-12T01:36:24.653Z,70.30
2022-09-12T01:39:00.406Z,70.20
2022-09-12T01:41:32.456Z,69.70
2022-09-12T01:44:06.940Z,70.10
2022-09-12T01:46:43.868Z,69.80
2022-09-12T01:49:19.096Z,69.60
2022-09-12T01:51:58.393Z,69.30
2022-09-12T01:54:33.101Z,69.70
2022-09-12T01:57:07.632Z,70.90
2022-09-12T01:59:40.732Z,72.60
2022-09-12T02:02:13.681Z,72.80
2022-09-12T02:04:48.828Z,71.60
2022-09-12T02:07:21.426Z,70.80
2022-09-12T02:09:55.585Z,70.10
2022-09-12T02:12:27.645Z,69.60
2022-09-12T02:15:01.023Z,70.10
2022-09-12T02:17:31.690Z,72.20
2022-09-12T02:20:07.225Z,71.50
2022-09-12T02:22:38.816Z,70.80
2022-09-12T02:25:11.800Z,71.60
2022-09-12T02:27:43.583Z,71.00
2022-09-12T02:30:14.433Z,70.30
2022-09-12T02:32:48.438Z,69.80
2022-09-12T02:35:26.076Z,70.80
2022-09-12T02:38:02.180Z,70.50
2022-09-12T02:40:31.175Z,70.40
2022-09-12T02:42:59.784Z,70.20
2022-09-12T02:45:29.516Z,70.00
2022-09-12T02:48:01.264Z,69.90
2022-09-12T02:50:31.384Z,70.00
2022-09-12T02:53:04.635Z,71.10
2022-09-12T02:55:34.380Z,70.90
2022-09-12T02:58:04.086Z,70.30
2022-09-12T03:00:39.083Z,69.70
2022-09-12T03:03:22.087Z,72.70
2022-09-12T03:05:59.036Z,74.60
2022-09-12T03:08:49.108Z,73.60
2022-09-12T03:11:34.153Z,73.70
2022-09-12T03:14:22.632Z,75.40
2022-09-12T03:17:02.947Z,76.70
2022-09-12T03:19:40.539Z,74.60
2022-09-12T03:22:16.901Z,73.00
2022-09-12T03:24:53.047Z,74.00
2022-09-12T03:27:28.896Z,73.20
2022-09-12T03:29:57.840Z,72.50
2022-09-12T03:32:41.563Z,73.90
2022-09-12T03:35:10.688Z,72.70
2022-09-12T03:37:40.251Z,75.30
2022-09-12T03:40:10.184Z,73.70
2022-09-12T03:42:38.675Z,73.00
2022-09-12T03:45:08.348Z,72.30
2022-09-12T03:47:36.896Z,72.00
2022-09-12T03:50:05.489Z,72.70
2022-09-12T03:52:33.749Z,71.60
2022-09-12T03:55:03.676Z,71.10
2022-09-12T03:57:32.262Z,70.50
2022-09-12T04:00:02.314Z,70.40
2022-09-12T04:02:40.647Z,70.50
2022-09-12T04:05:09.320Z,70.30
2022-09-12T04:07:37.475Z,70.20
2022-09-12T04:10:09.622Z,70.40
2022-09-12T04:12:39.551Z,70.50
2022-09-12T04:15:09.035Z,70.60
2022-09-12T04:17:37.240Z,70.50
2022-09-12T04:20:06.383Z,71.00
2022-09-12T04:22:34.709Z,71.10
2022-09-12T04:25:03.489Z,71.20
2022-09-12T04:27:33.475Z,71.20
2022-09-12T04:30:02.484Z,71.50
2022-09-12T04:32:31.995Z,71.60
2022-09-12T04:35:00.215Z,71.90
2022-09-12T04:37:28.468Z,72.00
2022-09-12T04:39:58.104Z,72.20
2022-09-12T04:42:26.495Z,72.00
2022-09-12T04:44:56.473Z,71.90
2022-09-12T04:47:24.688Z,71.90
2022-09-12T04:49:53.095Z,71.80
2022-09-12T04:52:21.382Z,72.10
2022-09-12T04:54:49.792Z,71.80
2022-09-12T04:57:18.351Z,72.10
2022-09-12T04:59:49.768Z,71.40
2022-09-12T05:02:19.465Z,71.70
2022-09-12T05:04:48.289Z,71.00
2022-09-12T05:07:16.522Z,71.10
2022-09-12T05:09:44.812Z,70.80
2022-09-12T05:12:14.594Z,71.10
2022-09-12T05:14:42.762Z,71.20
2022-09-12T05:17:11.441Z,70.80
2022-09-12T05:19:40.938Z,70.50
2022-09-12T05:22:09.829Z,70.60
2022-09-12T05:24:39.438Z,71.20
2022-09-12T05:27:07.707Z,71.40
2022-09-12T05:29:36.047Z,71.60
2022-09-12T05:32:13.447Z,71.80
2022-09-12T05:34:43.166Z,72.10
2022-09-12T05:37:11.300Z,72.50
2022-09-12T05:39:39.647Z,72.80
2022-09-12T05:42:08.010Z,73.00
2022-09-12T05:44:36.494Z,73.70
2022-09-12T05:47:04.891Z,73.70
2022-09-12T05:49:33.064Z,74.10
2022-09-12T05:52:03.371Z,74.30
2022-09-12T05:54:31.916Z,74.80
2022-09-12T05:57:00.076Z,75.20
2022-09-12T05:59:28.947Z,75.10
2022-09-12T06:01:57.245Z,75.10
2022-09-12T06:04:26.412Z,76.00
2022-09-12T06:06:54.605Z,75.90
2022-09-12T06:09:25.606Z,76.10
2022-09-12T06:11:53.866Z,78.60
2022-09-12T06:14:22.411Z,78.60
2022-09-12T06:16:50.708Z,78.50
2022-09-12T06:19:21.632Z,77.70
2022-09-12T06:21:51.645Z,78.30
2022-09-12T06:24:21.110Z,78.30
2022-09-12T06:27:40.098Z,81.90
2022-09-12T06:30:11.615Z,84.50
2022-09-12T06:32:39.762Z,84.20
2022-09-12T06:35:08.658Z,85.30
2022-09-12T06:37:36.801Z,83.30
2022-09-12T06:40:05.869Z,87.30
2022-09-12T06:42:34.661Z,88.70
2022-09-12T06:45:02.982Z,88.50
2022-09-12T06:47:33.029Z,88.80
2022-09-12T06:50:01.758Z,88.00
2022-09-12T06:52:30.244Z,88.20
2022-09-12T06:54:58.436Z,90.00
2022-09-12T06:57:30.343Z,89.90
2022-09-12T06:59:59.031Z,90.60
2022-09-12T07:02:27.260Z,90.30
2022-09-12T07:04:57.023Z,90.00
2022-09-12T07:07:25.290Z,90.50
2022-09-12T07:09:54.092Z,91.10
2022-09-12T07:12:22.233Z,90.80
2022-09-12T07:14:50.339Z,89.70
2022-09-12T07:17:18.486Z,89.50
2022-09-12T07:19:46.932Z,89.50
2022-09-12T07:22:16.460Z,86.70
2022-09-12T07:24:45.871Z,86.70
2022-09-12T07:27:14.016Z,86.00
2022-09-12T07:29:42.249Z,85.80
2022-09-12T07:32:10.716Z,85.90
2022-09-12T07:34:39.024Z,85.40
2022-09-12T07:37:07.156Z,85.90
2022-09-12T07:39:37.899Z,86.00
2022-09-12T07:42:06.975Z,83.90
2022-09-12T07:44:35.369Z,84.50
2022-09-12T07:47:04.696Z,85.70
2022-09-12T07:49:32.952Z,85.50
2022-09-12T07:52:01.154Z,84.40
2022-09-12T07:54:29.292Z,83.20
2022-09-12T07:56:58.853Z,84.00
2022-09-12T07:59:50.892Z,83.60
2022-09-12T08:02:17.674Z,83.00
2022-09-12T08:04:46.644Z,82.80
2022-09-12T08:07:14.691Z,82.30
2022-09-12T08:09:42.906Z,81.20
2022-09-12T08:12:12.408Z,81.90
2022-09-12T08:14:40.917Z,82.80
2022-09-12T08:17:09.228Z,82.40
2022-09-12T08:19:38.397Z,81.50
2022-09-12T08:22:06.684Z,81.60
2022-09-12T08:24:34.940Z,80.10
2022-09-12T08:27:03.102Z,79.30
2022-09-12T08:29:32.721Z,79.40
2022-09-12T08:32:01.059Z,80.20
2022-09-12T08:34:29.324Z,79.90
2022-09-12T08:36:57.777Z,80.80
2022-09-12T08:39:26.063Z,80.80
2022-09-12T08:42:03.096Z,79.90
2022-09-12T08:45:02.865Z,78.80
2022-09-12T08:47:35.306Z,81.20
2022-09-12T08:50:17.953Z,79.00
2022-09-12T08:52:58.738Z,78.60
2022-09-12T08:55:32.239Z,76.30
2022-09-12T08:58:01.532Z,76.00
2022-09-12T09:00:42.551Z,77.70
2022-09-12T09:03:56.522Z,78.90
2022-09-12T09:06:50.339Z,74.30
2022-09-12T09:09:29.344Z,75.20
2022-09-12T09:12:08.276Z,77.80
2022-09-12T09:15:06.026Z,74.50
2022-09-12T09:17:39.996Z,71.20
2022-09-12T09:20:17.372Z,67.40
2022-09-12T09:22:50.555Z,70.80
2022-09-12T09:25:23.157Z,69.50
2022-09-12T09:27:59.494Z,69.50
2022-09-12T09:30:28.668Z,70.40
2022-09-12T09:33:00.956Z,66.80
2022-09-12T09:35:41.727Z,67.10
2022-09-12T09:38:34.935Z,67.90
2022-09-12T09:41:21.561Z,68.70
2022-09-12T09:43:49.788Z,66.80
2022-09-12T09:46:18.494Z,65.60
2022-09-12T09:48:50.735Z,66.30
2022-09-12T09:51:25.127Z,66.60
2022-09-12T09:53:55.935Z,67.90
2022-09-12T09:56:29.819Z,67.80
2022-09-12T09:58:58.123Z,65.30
2022-09-12T10:01:27.510Z,67.90
2022-09-12T10:03:58.514Z,69.30
2022-09-12T10:06:32.441Z,65.20
2022-09-12T10:09:20.044Z,67.50
2022-09-12T10:11:49.107Z,67.70
2022-09-12T10:14:37.735Z,71.70
2022-09-12T10:17:34.166Z,69.10
2022-09-12T10:20:20.453Z,62.00
2022-09-12T10:22:50.651Z,61.50
2022-09-12T10:25:21.274Z,63.90
2022-09-12T10:27:56.435Z,62.20
2022-09-12T10:30:28.295Z,61.50
2022-09-12T10:33:06.588Z,65.40
2022-09-12T10:35:47.069Z,62.50
2022-09-12T10:38:22.619Z,62.60
2022-09-12T10:40:59.895Z,61.10
2022-09-12T10:43:31.096Z,62.10
2022-09-12T10:46:00.232Z,65.00
2022-09-12T10:48:31.780Z,60.30
2022-09-12T10:51:02.576Z,60.50
2022-09-12T10:53:34.860Z,58.90
2022-09-12T10:56:11.186Z,59.20
2022-09-12T10:59:12.137Z,57.60
2022-09-12T11:01:44.450Z,60.60
2022-09-12T11:04:44.133Z,57.60
2022-09-12T11:07:30.441Z,57.00
2022-09-12T11:10:07.378Z,54.90
2022-09-12T11:12:44.836Z,53.80
2022-09-12T11:15:32.052Z,57.80
2022-09-12T11:18:10.196Z,55.90
2022-09-12T11:21:09.453Z,54.80
2022-09-12T11:23:59.331Z,49.80
2022-09-12T11:26:43.047Z,49.70
2022-09-12T11:29:22.512Z,47.10
2022-09-12T11:32:11.893Z,47.00
2022-09-12T11:34:53.409Z,46.20
2022-09-12T11:37:43.695Z,48.30
2022-09-12T11:40:28.549Z,46.70
2022-09-12T11:43:00.713Z,48.10
2022-09-12T11:45:34.299Z,46.80
2022-09-12T11:48:08.643Z,50.10
2022-09-12T11:50:37.371Z,41.20
2022-09-12T11:53:14.095Z,42.10
2022-09-12T11:55:54.458Z,40.70
2022-09-12T11:58:28.744Z,39.80
2022-09-12T12:01:00.304Z,43.40
2022-09-12T12:03:35.611Z,41.40
2022-09-12T12:06:07.478Z,41.50
2022-09-12T12:08:41.525Z,45.90
2022-09-12T12:11:13.585Z,42.10
2022-09-12T12:13:47.865Z,42.90
2022-09-12T12:16:22.536Z,41.20
2022-09-12T12:18:56.971Z,38.70
2022-09-12T12:21:40.634Z,37.50
2022-09-12T12:24:19.096Z,37.90
2022-09-12T12:26:59.043Z,35.90
2022-09-12T12:29:48.304Z,37.30
2022-09-12T12:32:24.960Z,36.00
2022-09-12T12:35:23.589Z,38.30
2022-09-12T12:37:58.910Z,38.60
2022-09-12T12:40:29.840Z,34.80
2022-09-12T12:43:32.052Z,34.90
2022-09-12T12:46:07.911Z,35.10
2022-09-12T12:48:56.131Z,38.50
2022-09-12T12:51:57.441Z,34.10
2022-09-12T12:54:35.637Z,39.20
2022-09-12T12:57:28.237Z,32.50
2022-09-12T13:00:02.416Z,32.50
2022-09-12T13:02:35.553Z,33.10
2022-09-12T13:05:08.006Z,32.10
2022-09-12T13:07:39.593Z,32.20
2022-09-12T13:10:09.158Z,32.80
2022-09-12T13:12:45.475Z,32.00
2022-09-12T13:15:52.745Z,33.70
2022-09-12T13:18:29.190Z,30.20
2022-09-12T13:21:07.904Z,31.60
2022-09-12T13:23:36.319Z,30.50
2022-09-12T13:26:11.425Z,30.80
2022-09-12T13:28:40.017Z,32.10
2022-09-12T13:31:18.629Z,28.90
2022-09-12T13:33:51.161Z,31.20
2022-09-12T13:36:44.365Z,30.40
2022-09-12T13:39:17.871Z,30.60
2022-09-12T13:42:21.886Z,29.80
2022-09-12T13:44:52.928Z,27.40
2022-09-12T13:47:25.907Z,30.10
2022-09-12T13:49:56.806Z,28.40
2022-09-12T13:52:29.249Z,26.80
2022-09-12T13:55:00.241Z,25.50
2022-09-12T13:57:31.718Z,25.50
2022-09-12T14:00:02.018Z,23.70
2022-09-12T14:02:37.746Z,20.70
2022-09-12T14:05:22.165Z,24.70
2022-09-12T14:07:56.338Z,26.90
2022-09-12T14:10:30.287Z,27.80
2022-09-12T14:12:59.669Z,27.60
2022-09-12T14:15:31.331Z,25.90
2022-09-12T14:18:01.923Z,27.60
2022-09-12T14:20:33.085Z,28.30
2022-09-12T14:23:03.662Z,27.00
2022-09-12T14:25:39.082Z,27.00
2022-09-12T14:28:07.809Z,25.70
2022-09-12T14:30:37.821Z,27.20
2022-09-12T14:33:21.972Z,27.90
2022-09-12T14:35:53.993Z,27.00
2022-09-12T14:38:32.488Z,26.70
2022-09-12T14:41:02.852Z,26.10
2022-09-12T14:43:33.064Z,25.50
2022-09-12T14:46:03.734Z,25.40
2022-09-12T14:48:36.787Z,26.20
2022-09-12T14:51:07.490Z,24.90
2022-09-12T14:53:37.818Z,25.80
2022-09-12T14:56:11.270Z,26.00
2022-09-12T14:58:40.643Z,25.00
2022-09-12T15:01:27.281Z,25.80
2022-09-12T15:03:57.535Z,26.00
2022-09-12T15:06:30.063Z,26.80
2022-09-12T15:09:00.795Z,26.60
2022-09-12T15:11:29.426Z,26.20
2022-09-12T15:13:58.023Z,28.00
2022-09-12T15:16:26.334Z,27.00
2022-09-12T15:18:54.557Z,27.60
2022-09-12T15:21:22.890Z,27.50
2022-09-12T15:23:53.999Z,27.00
2022-09-12T15:26:24.302Z,33.90
2022-09-12T15:28:52.468Z,30.10
2022-09-12T15:31:25.839Z,29.30
2022-09-12T15:33:54.619Z,28.50
2022-09-12T15:36:23.998Z,27.00
2022-09-12T15:38:54.351Z,27.40
2022-09-12T15:41:24.280Z,26.90
2022-09-12T15:43:53.245Z,29.80
2022-09-12T15:46:21.872Z,27.80
2022-09-12T15:48:50.330Z,27.50
2022-09-12T15:51:20.104Z,28.90
2022-09-12T15:53:49.863Z,29.20
2022-09-12T15:56:21.024Z,27.70
2022-09-12T15:58:58.764Z,28.00
2022-09-12T16:01:28.910Z,28.40
2022-09-12T16:03:57.428Z,27.20
2022-09-12T16:06:25.677Z,30.30
2022-09-12T16:08:54.025Z,29.00
2022-09-12T16:11:25.952Z,29.00
2022-09-12T16:13:55.253Z,29.10
2022-09-12T16:16:23.922Z,28.80
2022-09-12T16:18:52.252Z,31.40
2022-09-12T16:21:20.436Z,33.80
2022-09-12T16:23:49.554Z,35.10
2022-09-12T16:26:18.176Z,36.70
2022-09-12T16:28:48.246Z,37.90
2022-09-12T16:31:16.517Z,39.00
2022-09-12T16:33:44.691Z,38.50
2022-09-12T16:36:14.561Z,38.30
2022-09-12T16:38:43.259Z,38.70
2022-09-12T16:41:12.652Z,38.70
2022-09-12T16:43:41.385Z,38.70
2022-09-12T16:46:13.217Z,38.60
2022-09-12T16:48:49.395Z,39.00
2022-09-12T16:51:21.518Z,39.10
2022-09-12T16:53:50.523Z,37.30
2022-09-12T16:56:19.143Z,37.10
2022-09-12T16:58:47.823Z,38.30
2022-09-12T17:01:19.862Z,38.70
2022-09-12T17:03:48.601Z,39.70
2022-09-12T17:06:18.445Z,41.10
2022-09-12T17:08:48.612Z,41.20
2022-09-12T17:11:19.317Z,41.90
2022-09-12T17:14:07.519Z,42.30
2022-09-12T17:16:39.615Z,42.70
2022-09-12T17:19:09.256Z,44.20
2022-09-12T17:21:37.507Z,44.80
2022-09-12T17:24:05.938Z,43.90
2022-09-12T17:26:34.103Z,44.30
2022-09-12T17:29:03.142Z,45.10
2022-09-12T17:31:32.013Z,45.50
2022-09-12T17:34:02.816Z,45.20
2022-09-12T17:36:33.293Z,44.70
2022-09-12T17:39:03.689Z,44.20
2022-09-12T17:41:32.962Z,43.90
2022-09-12T17:44:03.512Z,43.80
2022-09-12T17:46:35.098Z,43.40
2022-09-12T17:49:06.566Z,43.20
2022-09-12T17:51:35.297Z,43.40
2022-09-12T17:54:05.828Z,43.50
2022-09-12T17:56:35.838Z,44.30
2022-09-12T17:59:04.767Z,44.00
2022-09-12T18:01:50.545Z,43.50
2022-09-12T18:04:20.947Z,43.50
2022-09-12T18:06:49.634Z,43.30
2022-09-12T18:09:19.810Z,43.80
2022-09-12T18:11:48.820Z,43.70
2022-09-12T18:14:17.609Z,43.90
2022-09-12T18:16:46.533Z,44.30
2022-09-12T18:19:15.867Z,44.50
2022-09-12T18:21:45.670Z,44.30
2022-09-12T18:24:13.956Z,44.70
2022-09-12T18:26:43.604Z,44.40
2022-09-12T18:29:12.424Z,44.60
2022-09-12T18:31:40.561Z,44.70
2022-09-12T18:34:12.679Z,44.90
2022-09-12T18:36:41.627Z,45.60
2022-09-12T18:39:12.383Z,45.50
2022-09-12T18:41:41.436Z,45.60
2022-09-12T18:44:11.646Z,46.20
2022-09-12T18:46:39.971Z,46.60
2022-09-12T18:49:09.517Z,47.20
2022-09-12T18:51:40.173Z,47.10
2022-09-12T18:54:14.907Z,46.90
2022-09-12T18:56:44.033Z,47.10
2022-09-12T18:59:14.930Z,47.40
2022-09-12T19:01:44.029Z,47.70
2022-09-12T19:04:14.008Z,49.10
2022-09-12T19:06:43.636Z,48.40
2022-09-12T19:09:15.643Z,49.20
2022-09-12T19:11:49.469Z,48.90
2022-09-12T19:14:18.905Z,49.00
2022-09-12T19:16:47.247Z,48.40
2022-09-12T19:19:15.884Z,49.60
2022-09-12T19:21:44.506Z,49.20
2022-09-12T19:24:14.780Z,48.70
2022-09-12T19:26:43.292Z,48.60
2022-09-12T19:29:13.996Z,48.50
2022-09-12T19:31:42.272Z,48.60
2022-09-12T19:34:12.204Z,48.60
2022-09-12T19:36:45.475Z,49.00
2022-09-12T19:39:17.389Z,49.30
2022-09-12T19:41:46.307Z,49.90
2022-09-12T19:44:14.860Z,50.10
2022-09-12T19:46:43.504Z,49.90
2022-09-12T19:49:12.966Z,50.30
2022-09-12T19:51:41.728Z,50.40
2022-09-12T19:54:10.106Z,50.60
2022-09-12T19:56:40.435Z,50.60
2022-09-12T19:59:08.921Z,50.80
2022-09-12T20:01:37.755Z,50.60
2022-09-12T20:04:06.831Z,50.60
2022-09-12T20:06:35.201Z,51.10
2022-09-12T20:09:03.694Z,51.70
2022-09-12T20:11:32.160Z,51.90
2022-09-12T20:14:01.889Z,51.90
2022-09-12T20:16:31.102Z,51.60
2022-09-12T20:19:01.143Z,51.70
2022-09-12T20:21:35.752Z,51.90
2022-09-12T20:24:06.175Z,52.60
2022-09-12T20:26:35.023Z,52.40
2022-09-12T20:29:05.815Z,52.50
2022-09-12T20:31:35.035Z,52.20
2022-09-12T20:34:03.679Z,52.50
2022-09-12T20:36:32.008Z,52.50
2022-09-12T20:39:02.554Z,53.10
2022-09-12T20:41:32.838Z,53.30
2022-09-12T20:44:01.463Z,53.30
2022-09-12T20:46:31.317Z,53.00
2022-09-12T20:48:59.909Z,52.70
2022-09-12T20:51:30.379Z,53.60
2022-09-12T20:53:59.931Z,53.00
2022-09-12T20:56:29.095Z,52.60
2022-09-12T20:58:57.604Z,52.60
2022-09-12T21:01:27.052Z,52.50
2022-09-12T21:03:56.964Z,53.10
2022-09-12T21:06:25.406Z,53.80
2022-09-12T21:08:54.676Z,54.50
2022-09-12T21:11:22.929Z,55.10
2022-09-12T21:13:52.887Z,54.90
2022-09-12T21:16:22.588Z,55.00
2022-09-12T21:18:56.644Z,55.70
2022-09-12T21:21:25.574Z,55.30
2022-09-12T21:23:55.594Z,54.60
2022-09-12T21:26:24.039Z,54.60
2022-09-12T21:28:52.211Z,55.10
2022-09-12T21:31:20.774Z,55.50
2022-09-12T21:33:49.146Z,55.20
2022-09-12T21:36:18.916Z,54.70
2022-09-12T21:38:47.099Z,54.70
2022-09-12T21:41:17.243Z,55.10
2022-09-12T21:43:46.127Z,55.00
2022-09-12T21:46:14.432Z,54.60
2022-09-12T21:48:44.731Z,54.70
2022-09-12T21:51:12.968Z,54.80
2022-09-12T21:53:42.627Z,55.10
2022-09-12T21:56:11.671Z,55.80
2022-09-12T21:58:39.851Z,55.40
2022-09-12T22:01:09.781Z,55.90
2022-09-12T22:03:37.971Z,56.60
2022-09-12T22:06:08.105Z,55.80
2022-09-12T22:08:37.471Z,55.80
2022-09-12T22:11:09.311Z,56.10
2022-09-12T22:13:39.311Z,56.70
2022-09-12T22:16:08.466Z,57.50
2022-09-12T22:18:38.028Z,57.30
2022-09-12T22:21:08.177Z,58.00
2022-09-12T22:23:53.671Z,58.40
2022-09-12T22:26:23.238Z,59.40
2022-09-12T22:28:52.023Z,58.40
2022-09-12T22:31:20.593Z,58.50
2022-09-12T22:33:50.027Z,58.50
2022-09-12T22:36:18.277Z,58.50
2022-09-12T22:38:46.500Z,58.80
2022-09-12T22:41:14.890Z,58.60
2022-09-12T22:43:44.378Z,59.20
2022-09-12T22:46:13.618Z,58.40
2022-09-12T22:48:42.850Z,58.70
2022-09-12T22:51:11.490Z,58.80
2022-09-12T22:53:39.985Z,58.50
2022-09-12T22:56:08.649Z,58.50
2022-09-12T22:58:38.131Z,58.40
2022-09-12T23:01:08.125Z,58.70
2022-09-12T23:03:37.056Z,58.50
2022-09-12T23:06:05.984Z,58.60
2022-09-12T23:08:36.364Z,58.90
2022-09-12T23:11:05.348Z,59.20
2022-09-12T23:13:34.132Z,59.00
2022-09-12T23:16:03.765Z,58.60
2022-09-12T23:18:35.915Z,58.70
2022-09-12T23:21:05.673Z,58.90
2022-09-12T23:23:33.863Z,59.20
2022-09-12T23:26:06.549Z,59.40
2022-09-12T23:28:35.579Z,59.50
2022-09-12T23:31:04.956Z,60.10
2022-09-12T23:33:34.651Z,59.80
2022-09-12T23:36:05.158Z,59.90
2022-09-12T23:38:34.744Z,60.10
2022-09-12T23:41:04.405Z,60.80
2022-09-12T23:43:32.779Z,61.00
2022-09-12T23:46:01.425Z,60.90
2022-09-12T23:48:30.021Z,60.70
2022-09-12T23:51:00.039Z,60.70
2022-09-12T23:53:29.622Z,59.90
2022-09-12T23:55:58.219Z,60.10
2022-09-12T23:58:26.972Z,59.70
